sensor_id;sensor_type;location;lat;lon;timestamp;temperature;humidity
20041;DHT22;10181;48.072;9.884;2023-07-13T00:02:06;17.00;99.90
20041;DHT22;10181;48.072;9.884;2023-07-13T00:04:31;17.10;99.90
20041;DHT22;10181;48.072;9.884;2023-07-13T00:06:57;17.00;99.90
20041;DHT22;10181;48.072;9.884;2023-07-13T00:09:23;17.00;99.90
20041;DHT22;10181;48.072;9.884;2023-07-13T00:11:54;17.10;99.90
20041;DHT22;10181;48.072;9.884;2023-07-13T00:14:20;17.00;99.90
20041;DHT22;10181;48.072;9.884;2023-07-13T00:16:45;17.00;99.90
20041;DHT22;10181;48.072;9.884;2023-07-13T00:19:12;17.00;99.90
20041;DHT22;10181;48.072;9.884;2023-07-13T00:21:39;17.10;99.90
20041;DHT22;10181;48.072;9.884;2023-07-13T00:24:06;17.00;99.90
20041;DHT22;10181;48.072;9.884;2023-07-13T00:26:32;17.00;99.90
20041;DHT22;10181;48.072;9.884;2023-07-13T00:28:58;17.00;99.90
20041;DHT22;10181;48.072;9.884;2023-07-13T00:31:24;17.00;99.90
20041;DHT22;10181;48.072;9.884;2023-07-13T00:33:50;17.00;99.90
20041;DHT22;10181;48.072;9.884;2023-07-13T00:36:15;17.00;99.90
20041;DHT22;10181;48.072;9.884;2023-07-13T00:38:41;17.00;99.90
20041;DHT22;10181;48.072;9.884;2023-07-13T00:41:07;17.00;99.90
20041;DHT22;10181;48.072;9.884;2023-07-13T00:43:33;17.00;99.90
20041;DHT22;10181;48.072;9.884;2023-07-13T00:48:32;17.00;99.90
20041;DHT22;10181;48.072;9.884;2023-07-13T00:51:00;17.00;99.90
20041;DHT22;10181;48.072;9.884;2023-07-13T00:53:27;17.00;99.90
20041;DHT22;10181;48.072;9.884;2023-07-13T00:55:55;17.00;99.90
20041;DHT22;10181;48.072;9.884;2023-07-13T00:58:26;17.00;99.90
20041;DHT22;10181;48.072;9.884;2023-07-13T01:00:53;17.00;99.90
20041;DHT22;10181;48.072;9.884;2023-07-13T01:03:19;17.00;99.90
20041;DHT22;10181;48.072;9.884;2023-07-13T01:05:48;17.00;99.90
20041;DHT22;10181;48.072;9.884;2023-07-13T01:08:14;17.00;99.90
20041;DHT22;10181;48.072;9.884;2023-07-13T01:10:41;16.90;99.90
20041;DHT22;10181;48.072;9.884;2023-07-13T01:13:09;16.90;99.90
20041;DHT22;10181;48.072;9.884;2023-07-13T01:15:45;16.90;99.90
20041;DHT22;10181;48.072;9.884;2023-07-13T01:18:17;16.90;99.90
20041;DHT22;10181;48.072;9.884;2023-07-13T01:20:57;16.90;99.90
20041;DHT22;10181;48.072;9.884;2023-07-13T01:23:24;16.80;99.90
20041;DHT22;10181;48.072;9.884;2023-07-13T01:25:51;16.70;99.90
20041;DHT22;10181;48.072;9.884;2023-07-13T01:28:17;16.70;99.90
20041;DHT22;10181;48.072;9.884;2023-07-13T01:30:44;16.60;99.90
20041;DHT22;10181;48.072;9.884;2023-07-13T01:33:12;16.60;99.90
20041;DHT22;10181;48.072;9.884;2023-07-13T01:35:38;16.60;99.90
20041;DHT22;10181;48.072;9.884;2023-07-13T01:38:04;16.60;99.90
20041;DHT22;10181;48.072;9.884;2023-07-13T01:40:31;16.60;99.90
20041;DHT22;10181;48.072;9.884;2023-07-13T01:42:58;16.60;99.90
20041;DHT22;10181;48.072;9.884;2023-07-13T01:45:24;16.50;99.90
20041;DHT22;10181;48.072;9.884;2023-07-13T01:47:49;16.50;99.90
20041;DHT22;10181;48.072;9.884;2023-07-13T01:50:15;16.50;99.90
20041;DHT22;10181;48.072;9.884;2023-07-13T01:52:40;16.50;99.90
20041;DHT22;10181;48.072;9.884;2023-07-13T01:55:07;16.50;99.90
20041;DHT22;10181;48.072;9.884;2023-07-13T01:57:32;16.50;99.90
20041;DHT22;10181;48.072;9.884;2023-07-13T01:59:58;16.50;99.90
20041;DHT22;10181;48.072;9.884;2023-07-13T02:02:24;16.50;99.90
20041;DHT22;10181;48.072;9.884;2023-07-13T02:04:50;16.50;99.90
20041;DHT22;10181;48.072;9.884;2023-07-13T02:07:15;16.50;99.90
20041;DHT22;10181;48.072;9.884;2023-07-13T02:09:41;16.50;99.90
20041;DHT22;10181;48.072;9.884;2023-07-13T02:12:08;16.60;99.90
20041;DHT22;10181;48.072;9.884;2023-07-13T02:14:33;16.60;99.90
20041;DHT22;10181;48.072;9.884;2023-07-13T02:16:59;16.70;99.90
20041;DHT22;10181;48.072;9.884;2023-07-13T02:19:25;16.70;99.90
20041;DHT22;10181;48.072;9.884;2023-07-13T02:21:51;16.70;99.90
20041;DHT22;10181;48.072;9.884;2023-07-13T02:24:16;16.70;99.90
20041;DHT22;10181;48.072;9.884;2023-07-13T02:26:44;16.70;99.90
20041;DHT22;10181;48.072;9.884;2023-07-13T02:29:10;16.60;99.90
20041;DHT22;10181;48.072;9.884;2023-07-13T02:31:36;16.60;99.90
20041;DHT22;10181;48.072;9.884;2023-07-13T02:34:03;16.50;99.90
20041;DHT22;10181;48.072;9.884;2023-07-13T02:36:30;16.50;99.90
20041;DHT22;10181;48.072;9.884;2023-07-13T02:38:56;16.50;99.90
20041;DHT22;10181;48.072;9.884;2023-07-13T02:41:21;16.40;99.90
20041;DHT22;10181;48.072;9.884;2023-07-13T02:43:48;16.40;99.90
20041;DHT22;10181;48.072;9.884;2023-07-13T02:46:14;16.40;99.90
20041;DHT22;10181;48.072;9.884;2023-07-13T02:48:40;16.40;99.90
20041;DHT22;10181;48.072;9.884;2023-07-13T02:51:06;16.30;99.90
20041;DHT22;10181;48.072;9.884;2023-07-13T02:53:32;16.30;99.90
20041;DHT22;10181;48.072;9.884;2023-07-13T02:55:58;16.30;99.90
20041;DHT22;10181;48.072;9.884;2023-07-13T02:58:24;16.30;99.90
20041;DHT22;10181;48.072;9.884;2023-07-13T03:00:49;16.20;99.90
20041;DHT22;10181;48.072;9.884;2023-07-13T03:03:16;16.20;99.90
20041;DHT22;10181;48.072;9.884;2023-07-13T03:05:43;16.10;99.90
20041;DHT22;10181;48.072;9.884;2023-07-13T03:08:11;16.10;99.90
20041;DHT22;10181;48.072;9.884;2023-07-13T03:10:36;16.20;99.90
20041;DHT22;10181;48.072;9.884;2023-07-13T03:13:03;16.20;99.90
20041;DHT22;10181;48.072;9.884;2023-07-13T03:15:29;16.20;99.90
20041;DHT22;10181;48.072;9.884;2023-07-13T03:17:54;16.20;99.90
20041;DHT22;10181;48.072;9.884;2023-07-13T03:20:20;16.20;99.90
20041;DHT22;10181;48.072;9.884;2023-07-13T03:22:46;16.20;99.90
20041;DHT22;10181;48.072;9.884;2023-07-13T03:25:12;16.20;99.90
20041;DHT22;10181;48.072;9.884;2023-07-13T03:27:38;16.20;99.90
20041;DHT22;10181;48.072;9.884;2023-07-13T03:30:05;16.20;99.90
20041;DHT22;10181;48.072;9.884;2023-07-13T03:32:31;16.20;99.90
20041;DHT22;10181;48.072;9.884;2023-07-13T03:34:56;16.20;99.90
20041;DHT22;10181;48.072;9.884;2023-07-13T03:37:22;16.20;99.90
20041;DHT22;10181;48.072;9.884;2023-07-13T03:39:48;16.30;99.90
20041;DHT22;10181;48.072;9.884;2023-07-13T03:42:14;16.30;99.90
20041;DHT22;10181;48.072;9.884;2023-07-13T03:44:40;16.30;99.90
20041;DHT22;10181;48.072;9.884;2023-07-13T03:47:06;16.30;99.90
20041;DHT22;10181;48.072;9.884;2023-07-13T03:49:34;16.30;99.90
20041;DHT22;10181;48.072;9.884;2023-07-13T03:52:00;16.30;99.90
20041;DHT22;10181;48.072;9.884;2023-07-13T03:54:26;16.30;99.90
20041;DHT22;10181;48.072;9.884;2023-07-13T03:56:51;16.30;99.90
20041;DHT22;10181;48.072;9.884;2023-07-13T03:59:17;16.30;99.90
20041;DHT22;10181;48.072;9.884;2023-07-13T04:01:44;16.30;99.90
20041;DHT22;10181;48.072;9.884;2023-07-13T04:04:09;16.30;99.90
20041;DHT22;10181;48.072;9.884;2023-07-13T04:06:35;16.30;99.90
20041;DHT22;10181;48.072;9.884;2023-07-13T04:09:02;16.30;99.90
20041;DHT22;10181;48.072;9.884;2023-07-13T04:11:31;16.30;99.90
20041;DHT22;10181;48.072;9.884;2023-07-13T04:13:58;16.40;99.90
20041;DHT22;10181;48.072;9.884;2023-07-13T04:16:24;16.40;99.90
20041;DHT22;10181;48.072;9.884;2023-07-13T04:18:51;16.40;99.90
20041;DHT22;10181;48.072;9.884;2023-07-13T04:21:20;16.40;99.90
20041;DHT22;10181;48.072;9.884;2023-07-13T04:23:46;16.30;99.90
20041;DHT22;10181;48.072;9.884;2023-07-13T04:26:11;16.30;99.90
20041;DHT22;10181;48.072;9.884;2023-07-13T04:28:37;16.30;99.90
20041;DHT22;10181;48.072;9.884;2023-07-13T04:31:03;16.20;99.90
20041;DHT22;10181;48.072;9.884;2023-07-13T04:33:29;16.20;99.90
20041;DHT22;10181;48.072;9.884;2023-07-13T04:35:55;16.20;99.90
20041;DHT22;10181;48.072;9.884;2023-07-13T04:38:29;16.20;99.90
20041;DHT22;10181;48.072;9.884;2023-07-13T04:40:59;16.20;99.90
20041;DHT22;10181;48.072;9.884;2023-07-13T04:43:26;16.20;99.90
20041;DHT22;10181;48.072;9.884;2023-07-13T04:45:52;16.20;99.90
20041;DHT22;10181;48.072;9.884;2023-07-13T04:48:18;16.20;99.90
20041;DHT22;10181;48.072;9.884;2023-07-13T04:50:45;16.20;99.90
20041;DHT22;10181;48.072;9.884;2023-07-13T04:53:11;16.20;99.90
20041;DHT22;10181;48.072;9.884;2023-07-13T04:55:37;16.10;99.90
20041;DHT22;10181;48.072;9.884;2023-07-13T04:58:04;16.10;99.90
20041;DHT22;10181;48.072;9.884;2023-07-13T05:00:30;16.20;99.90
20041;DHT22;10181;48.072;9.884;2023-07-13T05:02:56;16.20;99.90
20041;DHT22;10181;48.072;9.884;2023-07-13T05:05:23;16.20;99.90
20041;DHT22;10181;48.072;9.884;2023-07-13T05:07:49;16.30;99.90
20041;DHT22;10181;48.072;9.884;2023-07-13T05:10:15;16.30;99.90
20041;DHT22;10181;48.072;9.884;2023-07-13T05:12:40;16.30;99.90
20041;DHT22;10181;48.072;9.884;2023-07-13T05:15:07;16.30;99.90
20041;DHT22;10181;48.072;9.884;2023-07-13T05:17:32;16.30;99.90
20041;DHT22;10181;48.072;9.884;2023-07-13T05:19:58;16.30;99.90
20041;DHT22;10181;48.072;9.884;2023-07-13T05:22:24;16.30;99.90
20041;DHT22;10181;48.072;9.884;2023-07-13T05:24:49;16.30;99.90
20041;DHT22;10181;48.072;9.884;2023-07-13T05:27:15;16.30;99.90
20041;DHT22;10181;48.072;9.884;2023-07-13T05:29:41;16.30;99.90
20041;DHT22;10181;48.072;9.884;2023-07-13T05:32:06;16.30;99.90
20041;DHT22;10181;48.072;9.884;2023-07-13T05:34:32;16.30;99.90
20041;DHT22;10181;48.072;9.884;2023-07-13T05:36:58;16.30;99.90
20041;DHT22;10181;48.072;9.884;2023-07-13T05:39:23;16.30;99.90
20041;DHT22;10181;48.072;9.884;2023-07-13T05:41:50;16.40;99.90
20041;DHT22;10181;48.072;9.884;2023-07-13T05:44:15;16.40;99.90
20041;DHT22;10181;48.072;9.884;2023-07-13T05:46:41;16.50;99.90
20041;DHT22;10181;48.072;9.884;2023-07-13T05:49:06;16.50;99.90
20041;DHT22;10181;48.072;9.884;2023-07-13T05:51:32;16.60;99.90
20041;DHT22;10181;48.072;9.884;2023-07-13T05:53:58;16.60;99.90
20041;DHT22;10181;48.072;9.884;2023-07-13T05:56:23;16.60;99.90
20041;DHT22;10181;48.072;9.884;2023-07-13T05:58:50;16.60;99.90
20041;DHT22;10181;48.072;9.884;2023-07-13T06:01:16;16.60;99.90
20041;DHT22;10181;48.072;9.884;2023-07-13T06:03:42;16.60;99.90
20041;DHT22;10181;48.072;9.884;2023-07-13T06:06:09;16.60;99.90
20041;DHT22;10181;48.072;9.884;2023-07-13T06:08:35;16.60;99.90
20041;DHT22;10181;48.072;9.884;2023-07-13T06:11:07;16.60;99.90
20041;DHT22;10181;48.072;9.884;2023-07-13T06:13:33;16.70;99.90
20041;DHT22;10181;48.072;9.884;2023-07-13T06:16:00;16.70;99.90
20041;DHT22;10181;48.072;9.884;2023-07-13T06:18:25;16.80;99.90
20041;DHT22;10181;48.072;9.884;2023-07-13T06:20:51;16.80;99.90
20041;DHT22;10181;48.072;9.884;2023-07-13T06:23:17;16.70;99.90
20041;DHT22;10181;48.072;9.884;2023-07-13T06:25:43;16.70;99.90
20041;DHT22;10181;48.072;9.884;2023-07-13T06:28:09;16.70;99.90
20041;DHT22;10181;48.072;9.884;2023-07-13T06:30:34;16.80;99.90
20041;DHT22;10181;48.072;9.884;2023-07-13T06:33:00;16.80;99.90
20041;DHT22;10181;48.072;9.884;2023-07-13T06:35:25;16.80;99.90
20041;DHT22;10181;48.072;9.884;2023-07-13T06:37:51;16.90;99.90
20041;DHT22;10181;48.072;9.884;2023-07-13T06:40:17;17.00;99.90
20041;DHT22;10181;48.072;9.884;2023-07-13T06:42:42;17.10;99.90
20041;DHT22;10181;48.072;9.884;2023-07-13T06:45:08;17.20;99.90
20041;DHT22;10181;48.072;9.884;2023-07-13T06:47:34;17.10;99.90
20041;DHT22;10181;48.072;9.884;2023-07-13T06:50:00;17.10;99.90
20041;DHT22;10181;48.072;9.884;2023-07-13T06:52:26;17.20;99.90
20041;DHT22;10181;48.072;9.884;2023-07-13T06:54:51;17.40;99.90
20041;DHT22;10181;48.072;9.884;2023-07-13T06:57:17;17.50;99.90
20041;DHT22;10181;48.072;9.884;2023-07-13T06:59:42;17.50;99.90
20041;DHT22;10181;48.072;9.884;2023-07-13T07:02:10;17.50;99.90
20041;DHT22;10181;48.072;9.884;2023-07-13T07:04:36;17.60;99.90
20041;DHT22;10181;48.072;9.884;2023-07-13T07:07:01;17.60;99.90
20041;DHT22;10181;48.072;9.884;2023-07-13T07:09:27;17.60;99.90
20041;DHT22;10181;48.072;9.884;2023-07-13T07:11:54;17.60;99.90
20041;DHT22;10181;48.072;9.884;2023-07-13T07:14:20;17.60;99.90
20041;DHT22;10181;48.072;9.884;2023-07-13T07:16:46;17.70;99.90
20041;DHT22;10181;48.072;9.884;2023-07-13T07:19:11;17.70;99.90
20041;DHT22;10181;48.072;9.884;2023-07-13T07:21:37;17.70;99.90
20041;DHT22;10181;48.072;9.884;2023-07-13T07:24:03;17.70;99.90
20041;DHT22;10181;48.072;9.884;2023-07-13T07:26:30;17.80;99.90
20041;DHT22;10181;48.072;9.884;2023-07-13T07:28:55;17.80;99.90
20041;DHT22;10181;48.072;9.884;2023-07-13T07:31:21;17.80;99.90
20041;DHT22;10181;48.072;9.884;2023-07-13T07:33:47;17.90;99.90
20041;DHT22;10181;48.072;9.884;2023-07-13T07:36:12;18.00;99.90
20041;DHT22;10181;48.072;9.884;2023-07-13T07:38:38;18.00;99.90
20041;DHT22;10181;48.072;9.884;2023-07-13T07:41:04;18.10;99.90
20041;DHT22;10181;48.072;9.884;2023-07-13T07:43:30;18.10;99.90
20041;DHT22;10181;48.072;9.884;2023-07-13T07:45:56;18.00;99.90
20041;DHT22;10181;48.072;9.884;2023-07-13T07:48:22;18.00;99.90
20041;DHT22;10181;48.072;9.884;2023-07-13T07:50:48;18.00;99.90
20041;DHT22;10181;48.072;9.884;2023-07-13T07:53:13;17.90;99.90
20041;DHT22;10181;48.072;9.884;2023-07-13T07:55:39;17.80;99.90
20041;DHT22;10181;48.072;9.884;2023-07-13T07:58:05;17.70;99.90
20041;DHT22;10181;48.072;9.884;2023-07-13T08:00:31;17.60;99.90
20041;DHT22;10181;48.072;9.884;2023-07-13T08:02:58;17.60;99.90
20041;DHT22;10181;48.072;9.884;2023-07-13T08:05:24;17.70;99.90
20041;DHT22;10181;48.072;9.884;2023-07-13T08:07:50;17.60;99.90
20041;DHT22;10181;48.072;9.884;2023-07-13T08:10:15;17.80;99.90
20041;DHT22;10181;48.072;9.884;2023-07-13T08:12:41;17.90;99.90
20041;DHT22;10181;48.072;9.884;2023-07-13T08:15:11;18.00;99.90
20041;DHT22;10181;48.072;9.884;2023-07-13T08:17:37;18.10;99.90
20041;DHT22;10181;48.072;9.884;2023-07-13T08:20:03;18.10;99.90
20041;DHT22;10181;48.072;9.884;2023-07-13T08:22:29;18.20;99.90
20041;DHT22;10181;48.072;9.884;2023-07-13T08:24:55;18.30;99.90
20041;DHT22;10181;48.072;9.884;2023-07-13T08:27:22;18.20;99.90
20041;DHT22;10181;48.072;9.884;2023-07-13T08:29:48;18.20;99.90
20041;DHT22;10181;48.072;9.884;2023-07-13T08:32:14;18.20;99.90
20041;DHT22;10181;48.072;9.884;2023-07-13T08:34:40;18.20;99.90
20041;DHT22;10181;48.072;9.884;2023-07-13T08:37:06;18.20;99.90
20041;DHT22;10181;48.072;9.884;2023-07-13T08:39:32;18.10;99.90
20041;DHT22;10181;48.072;9.884;2023-07-13T08:42:16;18.10;99.90
20041;DHT22;10181;48.072;9.884;2023-07-13T08:45:27;18.00;99.90
20041;DHT22;10181;48.072;9.884;2023-07-13T08:47:54;18.00;99.90
20041;DHT22;10181;48.072;9.884;2023-07-13T08:50:25;18.00;99.90
20041;DHT22;10181;48.072;9.884;2023-07-13T08:52:55;18.00;99.90
20041;DHT22;10181;48.072;9.884;2023-07-13T08:55:27;18.10;99.90
20041;DHT22;10181;48.072;9.884;2023-07-13T08:58:14;18.20;99.90
20041;DHT22;10181;48.072;9.884;2023-07-13T09:01:31;18.20;99.90
20041;DHT22;10181;48.072;9.884;2023-07-13T09:06:23;18.40;99.90
20041;DHT22;10181;48.072;9.884;2023-07-13T09:09:06;18.40;99.90
20041;DHT22;10181;48.072;9.884;2023-07-13T09:11:49;18.60;99.90
20041;DHT22;10181;48.072;9.884;2023-07-13T09:14:41;18.60;99.90
20041;DHT22;10181;48.072;9.884;2023-07-13T09:17:29;18.70;99.90
20041;DHT22;10181;48.072;9.884;2023-07-13T09:20:04;18.80;99.90
20041;DHT22;10181;48.072;9.884;2023-07-13T09:22:34;18.90;99.90
20041;DHT22;10181;48.072;9.884;2023-07-13T09:25:29;19.00;99.90
20041;DHT22;10181;48.072;9.884;2023-07-13T09:33:10;19.10;99.90
20041;DHT22;10181;48.072;9.884;2023-07-13T09:35:35;19.20;99.90
20041;DHT22;10181;48.072;9.884;2023-07-13T09:38:12;19.10;99.90
20041;DHT22;10181;48.072;9.884;2023-07-13T09:44:13;19.10;99.90
20041;DHT22;10181;48.072;9.884;2023-07-13T09:46:45;19.20;99.90
20041;DHT22;10181;48.072;9.884;2023-07-13T09:49:11;19.20;99.90
20041;DHT22;10181;48.072;9.884;2023-07-13T09:51:43;19.20;99.90
20041;DHT22;10181;48.072;9.884;2023-07-13T09:54:20;19.20;99.90
20041;DHT22;10181;48.072;9.884;2023-07-13T09:56:46;19.20;99.90
20041;DHT22;10181;48.072;9.884;2023-07-13T09:59:22;19.20;99.90
20041;DHT22;10181;48.072;9.884;2023-07-13T10:01:49;19.20;99.90
20041;DHT22;10181;48.072;9.884;2023-07-13T10:04:18;19.20;99.90
20041;DHT22;10181;48.072;9.884;2023-07-13T10:06:45;19.30;99.90
20041;DHT22;10181;48.072;9.884;2023-07-13T10:09:18;19.40;99.90
20041;DHT22;10181;48.072;9.884;2023-07-13T10:11:44;19.30;99.90
20041;DHT22;10181;48.072;9.884;2023-07-13T10:16:36;19.40;99.90
20041;DHT22;10181;48.072;9.884;2023-07-13T10:19:15;19.50;99.90
20041;DHT22;10181;48.072;9.884;2023-07-13T10:21:57;19.50;99.90
20041;DHT22;10181;48.072;9.884;2023-07-13T10:24:35;19.50;99.90
20041;DHT22;10181;48.072;9.884;2023-07-13T10:32:13;19.80;99.90
20041;DHT22;10181;48.072;9.884;2023-07-13T10:34:44;19.90;99.90
20041;DHT22;10181;48.072;9.884;2023-07-13T10:37:22;20.00;99.90
20041;DHT22;10181;48.072;9.884;2023-07-13T10:39:50;20.10;99.90
20041;DHT22;10181;48.072;9.884;2023-07-13T10:42:37;20.00;99.90
20041;DHT22;10181;48.072;9.884;2023-07-13T10:45:22;20.00;99.90
20041;DHT22;10181;48.072;9.884;2023-07-13T10:47:50;19.80;99.90
20041;DHT22;10181;48.072;9.884;2023-07-13T10:50:25;19.80;99.90
20041;DHT22;10181;48.072;9.884;2023-07-13T10:52:53;19.70;99.90
20041;DHT22;10181;48.072;9.884;2023-07-13T11:03:28;19.50;99.90
20041;DHT22;10181;48.072;9.884;2023-07-13T11:06:17;19.50;99.90
20041;DHT22;10181;48.072;9.884;2023-07-13T11:11:32;19.70;99.90
20041;DHT22;10181;48.072;9.884;2023-07-13T11:14:01;19.80;99.90
20041;DHT22;10181;48.072;9.884;2023-07-13T11:16:45;19.90;99.90
20041;DHT22;10181;48.072;9.884;2023-07-13T11:24:52;20.00;99.90
20041;DHT22;10181;48.072;9.884;2023-07-13T11:27:42;20.00;99.90
20041;DHT22;10181;48.072;9.884;2023-07-13T11:33:17;20.10;99.90
20041;DHT22;10181;48.072;9.884;2023-07-13T11:35:51;20.10;99.90
20041;DHT22;10181;48.072;9.884;2023-07-13T11:41:00;20.40;99.90
20041;DHT22;10181;48.072;9.884;2023-07-13T11:43:28;20.50;99.90
20041;DHT22;10181;48.072;9.884;2023-07-13T11:45:54;20.70;99.90
20041;DHT22;10181;48.072;9.884;2023-07-13T11:48:26;20.90;99.90
20041;DHT22;10181;48.072;9.884;2023-07-13T11:51:06;21.10;99.90
20041;DHT22;10181;48.072;9.884;2023-07-13T11:53:45;21.10;99.90
20041;DHT22;10181;48.072;9.884;2023-07-13T11:56:12;21.30;99.90
20041;DHT22;10181;48.072;9.884;2023-07-13T11:58:38;21.40;99.90
20041;DHT22;10181;48.072;9.884;2023-07-13T12:01:04;21.20;99.90
20041;DHT22;10181;48.072;9.884;2023-07-13T12:03:32;21.20;99.90
20041;DHT22;10181;48.072;9.884;2023-07-13T12:06:06;21.10;99.90
20041;DHT22;10181;48.072;9.884;2023-07-13T12:08:45;21.10;99.90
20041;DHT22;10181;48.072;9.884;2023-07-13T12:11:18;21.10;99.90
20041;DHT22;10181;48.072;9.884;2023-07-13T12:13:45;21.00;99.90
20041;DHT22;10181;48.072;9.884;2023-07-13T12:16:30;21.00;99.90
20041;DHT22;10181;48.072;9.884;2023-07-13T12:18:59;21.00;99.90
20041;DHT22;10181;48.072;9.884;2023-07-13T12:21:34;21.00;99.90
20041;DHT22;10181;48.072;9.884;2023-07-13T12:24:00;21.10;99.90
20041;DHT22;10181;48.072;9.884;2023-07-13T12:26:30;21.10;99.90
20041;DHT22;10181;48.072;9.884;2023-07-13T12:28:59;21.10;99.90
20041;DHT22;10181;48.072;9.884;2023-07-13T12:31:31;21.10;99.90
20041;DHT22;10181;48.072;9.884;2023-07-13T12:34:11;21.10;99.90
20041;DHT22;10181;48.072;9.884;2023-07-13T12:36:41;21.10;99.90
20041;DHT22;10181;48.072;9.884;2023-07-13T12:41:44;21.20;99.90
20041;DHT22;10181;48.072;9.884;2023-07-13T12:44:16;21.10;99.90
20041;DHT22;10181;48.072;9.884;2023-07-13T12:47:05;21.00;99.90
20041;DHT22;10181;48.072;9.884;2023-07-13T12:49:42;21.00;99.90
20041;DHT22;10181;48.072;9.884;2023-07-13T12:52:15;21.10;99.90
20041;DHT22;10181;48.072;9.884;2023-07-13T12:54:41;21.30;99.90
20041;DHT22;10181;48.072;9.884;2023-07-13T12:57:13;21.40;99.90
20041;DHT22;10181;48.072;9.884;2023-07-13T12:59:41;21.40;99.90
20041;DHT22;10181;48.072;9.884;2023-07-13T13:02:30;21.50;99.90
20041;DHT22;10181;48.072;9.884;2023-07-13T13:04:57;21.70;99.90
20041;DHT22;10181;48.072;9.884;2023-07-13T13:07:24;21.80;99.90
20041;DHT22;10181;48.072;9.884;2023-07-13T13:09:50;21.80;99.90
20041;DHT22;10181;48.072;9.884;2023-07-13T13:12:15;21.80;99.90
20041;DHT22;10181;48.072;9.884;2023-07-13T13:14:42;21.90;99.90
20041;DHT22;10181;48.072;9.884;2023-07-13T13:17:18;21.90;99.90
20041;DHT22;10181;48.072;9.884;2023-07-13T13:19:45;22.10;99.90
20041;DHT22;10181;48.072;9.884;2023-07-13T13:22:11;22.20;99.90
20041;DHT22;10181;48.072;9.884;2023-07-13T13:24:36;22.20;99.90
20041;DHT22;10181;48.072;9.884;2023-07-13T13:27:02;22.20;99.90
20041;DHT22;10181;48.072;9.884;2023-07-13T13:29:28;22.30;99.90
20041;DHT22;10181;48.072;9.884;2023-07-13T13:31:54;22.40;99.90
20041;DHT22;10181;48.072;9.884;2023-07-13T13:34:21;22.30;99.90
20041;DHT22;10181;48.072;9.884;2023-07-13T13:36:50;22.20;99.90
20041;DHT22;10181;48.072;9.884;2023-07-13T13:39:23;22.30;99.90
20041;DHT22;10181;48.072;9.884;2023-07-13T13:41:51;22.50;99.90
20041;DHT22;10181;48.072;9.884;2023-07-13T13:44:17;22.40;99.90
20041;DHT22;10181;48.072;9.884;2023-07-13T13:46:45;22.30;99.90
20041;DHT22;10181;48.072;9.884;2023-07-13T13:49:18;22.40;99.90
20041;DHT22;10181;48.072;9.884;2023-07-13T13:51:45;22.40;99.90
20041;DHT22;10181;48.072;9.884;2023-07-13T13:54:13;22.50;99.90
20041;DHT22;10181;48.072;9.884;2023-07-13T13:56:41;22.60;99.90
20041;DHT22;10181;48.072;9.884;2023-07-13T13:59:06;22.60;99.90
20041;DHT22;10181;48.072;9.884;2023-07-13T14:01:34;22.70;99.90
20041;DHT22;10181;48.072;9.884;2023-07-13T14:04:00;22.80;99.90
20041;DHT22;10181;48.072;9.884;2023-07-13T14:06:26;22.70;99.90
20041;DHT22;10181;48.072;9.884;2023-07-13T14:08:52;22.60;99.90
20041;DHT22;10181;48.072;9.884;2023-07-13T14:11:21;22.30;99.90
20041;DHT22;10181;48.072;9.884;2023-07-13T14:13:53;22.20;99.90
20041;DHT22;10181;48.072;9.884;2023-07-13T14:16:22;22.20;99.90
20041;DHT22;10181;48.072;9.884;2023-07-13T14:18:53;22.10;99.90
20041;DHT22;10181;48.072;9.884;2023-07-13T14:21:20;22.00;99.90
20041;DHT22;10181;48.072;9.884;2023-07-13T14:23:47;22.00;99.90
20041;DHT22;10181;48.072;9.884;2023-07-13T14:26:35;21.90;99.90
20041;DHT22;10181;48.072;9.884;2023-07-13T14:29:02;22.00;99.90
20041;DHT22;10181;48.072;9.884;2023-07-13T14:31:29;22.10;99.90
20041;DHT22;10181;48.072;9.884;2023-07-13T14:33:55;22.20;99.90
20041;DHT22;10181;48.072;9.884;2023-07-13T14:36:26;22.40;99.90
20041;DHT22;10181;48.072;9.884;2023-07-13T14:38:52;22.40;99.90
20041;DHT22;10181;48.072;9.884;2023-07-13T14:41:18;22.40;99.90
20041;DHT22;10181;48.072;9.884;2023-07-13T14:43:44;22.20;99.90
20041;DHT22;10181;48.072;9.884;2023-07-13T14:46:39;22.10;99.90
20041;DHT22;10181;48.072;9.884;2023-07-13T14:51:51;22.00;99.90
20041;DHT22;10181;48.072;9.884;2023-07-13T14:54:16;22.20;99.90
20041;DHT22;10181;48.072;9.884;2023-07-13T14:56:42;22.40;99.90
20041;DHT22;10181;48.072;9.884;2023-07-13T14:59:08;22.40;99.90
20041;DHT22;10181;48.072;9.884;2023-07-13T15:01:37;22.50;99.90
20041;DHT22;10181;48.072;9.884;2023-07-13T15:04:04;22.50;99.90
20041;DHT22;10181;48.072;9.884;2023-07-13T15:06:30;22.40;99.90
20041;DHT22;10181;48.072;9.884;2023-07-13T15:08:57;22.30;99.90
20041;DHT22;10181;48.072;9.884;2023-07-13T15:11:23;22.10;99.90
20041;DHT22;10181;48.072;9.884;2023-07-13T15:13:49;22.00;99.90
20041;DHT22;10181;48.072;9.884;2023-07-13T15:16:23;21.90;99.90
20041;DHT22;10181;48.072;9.884;2023-07-13T15:18:49;21.80;99.90
20041;DHT22;10181;48.072;9.884;2023-07-13T15:21:22;21.60;99.90
20041;DHT22;10181;48.072;9.884;2023-07-13T15:23:48;21.70;99.90
20041;DHT22;10181;48.072;9.884;2023-07-13T15:26:16;21.60;99.90
20041;DHT22;10181;48.072;9.884;2023-07-13T15:28:43;21.70;99.90
20041;DHT22;10181;48.072;9.884;2023-07-13T15:31:19;21.70;99.90
20041;DHT22;10181;48.072;9.884;2023-07-13T15:33:46;21.90;99.90
20041;DHT22;10181;48.072;9.884;2023-07-13T15:36:20;22.00;99.90
20041;DHT22;10181;48.072;9.884;2023-07-13T15:38:47;22.20;99.90
20041;DHT22;10181;48.072;9.884;2023-07-13T15:41:19;22.50;99.90
20041;DHT22;10181;48.072;9.884;2023-07-13T15:43:46;22.60;99.90
20041;DHT22;10181;48.072;9.884;2023-07-13T15:46:11;22.70;99.90
20041;DHT22;10181;48.072;9.884;2023-07-13T15:48:37;22.90;99.90
20041;DHT22;10181;48.072;9.884;2023-07-13T15:51:05;22.80;99.90
20041;DHT22;10181;48.072;9.884;2023-07-13T15:53:38;22.70;99.90
20041;DHT22;10181;48.072;9.884;2023-07-13T15:58:41;22.50;99.90
20041;DHT22;10181;48.072;9.884;2023-07-13T16:01:10;22.40;99.90
20041;DHT22;10181;48.072;9.884;2023-07-13T16:03:36;22.20;99.90
20041;DHT22;10181;48.072;9.884;2023-07-13T16:06:02;22.20;99.90
20041;DHT22;10181;48.072;9.884;2023-07-13T16:08:31;22.20;99.90
20041;DHT22;10181;48.072;9.884;2023-07-13T16:10:59;22.20;99.90
20041;DHT22;10181;48.072;9.884;2023-07-13T16:13:25;22.20;99.90
20041;DHT22;10181;48.072;9.884;2023-07-13T16:15:51;22.20;99.90
20041;DHT22;10181;48.072;9.884;2023-07-13T16:18:18;22.20;99.90
20041;DHT22;10181;48.072;9.884;2023-07-13T16:20:47;22.10;99.90
20041;DHT22;10181;48.072;9.884;2023-07-13T16:23:15;21.90;99.90
20041;DHT22;10181;48.072;9.884;2023-07-13T16:25:42;21.80;99.90
20041;DHT22;10181;48.072;9.884;2023-07-13T16:28:12;21.80;99.90
20041;DHT22;10181;48.072;9.884;2023-07-13T16:30:38;21.80;99.90